sensor_id;sensor_type;location;lat;lon;timestamp;pressure;altitude;pressure_sealevel;temperature;humidity
80308;BME280;69616;43.522;1.348;2024-01-15T00:02:08;99594.25;;;9.59;84.30
80308;BME280;69616;43.522;1.348;2024-01-15T00:04:38;99590.72;;;9.60;84.02
80308;BME280;69616;43.522;1.348;2024-01-15T00:07:04;99591.59;;;9.61;84.01
80308;BME280;69616;43.522;1.348;2024-01-15T00:09:29;99590.72;;;9.60;83.89
80308;BME280;69616;43.522;1.348;2024-01-15T00:11:54;99588.97;;;9.61;84.04
80308;BME280;69616;43.522;1.348;2024-01-15T00:14:20;99578.47;;;9.61;84.10
80308;BME280;69616;43.522;1.348;2024-01-15T00:16:46;99574.06;;;9.61;84.44
80308;BME280;69616;43.522;1.348;2024-01-15T00:19:11;99572.31;;;9.62;84.07
80308;BME280;69616;43.522;1.348;2024-01-15T00:21:37;99573.22;;;9.61;84.29
80308;BME280;69616;43.522;1.348;2024-01-15T00:24:02;99573.22;;;9.61;84.57
80308;BME280;69616;43.522;1.348;2024-01-15T00:26:28;99564.44;;;9.62;84.36
80308;BME280;69616;43.522;1.348;2024-01-15T00:28:53;99567.91;;;9.62;84.19
80308;BME280;69616;43.522;1.348;2024-01-15T00:31:18;99560.06;;;9.61;84.07
80308;BME280;69616;43.522;1.348;2024-01-15T00:33:44;99565.31;;;9.61;84.29
80308;BME280;69616;43.522;1.348;2024-01-15T00:36:09;99559.22;;;9.59;84.42
80308;BME280;69616;43.522;1.348;2024-01-15T00:38:34;99557.44;;;9.59;83.99
80308;BME280;69616;43.522;1.348;2024-01-15T00:41:00;99547.84;;;9.57;84.44
80308;BME280;69616;43.522;1.348;2024-01-15T00:43:25;99557.50;;;9.55;84.33
80308;BME280;69616;43.522;1.348;2024-01-15T00:45:51;99544.38;;;9.55;84.07
80308;BME280;69616;43.522;1.348;2024-01-15T00:48:16;99551.41;;;9.53;84.24
80308;BME280;69616;43.522;1.348;2024-01-15T00:50:41;99563.66;;;9.51;84.28
80308;BME280;69616;43.522;1.348;2024-01-15T00:53:07;99560.19;;;9.48;84.44
80308;BME280;69616;43.522;1.348;2024-01-15T00:55:32;99568.06;;;9.48;83.96
80308;BME280;69616;43.522;1.348;2024-01-15T00:57:57;99570.69;;;9.50;84.01
80308;BME280;69616;43.522;1.348;2024-01-15T01:00:23;99566.31;;;9.49;84.15
80308;BME280;69616;43.522;1.348;2024-01-15T01:02:48;99571.59;;;9.49;84.49
80308;BME280;69616;43.522;1.348;2024-01-15T01:05:14;99565.44;;;9.48;84.36
80308;BME280;69616;43.522;1.348;2024-01-15T01:07:39;99562.81;;;9.50;84.36
80308;BME280;69616;43.522;1.348;2024-01-15T01:10:05;99563.69;;;9.49;84.13
80308;BME280;69616;43.522;1.348;2024-01-15T01:12:30;99558.41;;;9.51;84.19
80308;BME280;69616;43.522;1.348;2024-01-15T01:14:56;99542.63;;;9.51;84.20
80308;BME280;69616;43.522;1.348;2024-01-15T01:17:22;99537.38;;;9.51;84.38
80308;BME280;69616;43.522;1.348;2024-01-15T01:19:47;99533.00;;;9.51;84.14
80308;BME280;69616;43.522;1.348;2024-01-15T01:22:13;99526.88;;;9.51;83.75
80308;BME280;69616;43.522;1.348;2024-01-15T01:24:38;99525.22;;;9.45;84.50
80308;BME280;69616;43.522;1.348;2024-01-15T01:27:04;99525.22;;;9.43;84.13
80308;BME280;69616;43.522;1.348;2024-01-15T01:29:29;99522.63;;;9.42;84.64
80308;BME280;69616;43.522;1.348;2024-01-15T01:31:54;99520.00;;;9.42;84.51
80308;BME280;69616;43.522;1.348;2024-01-15T01:34:21;99508.59;;;9.41;84.13
80308;BME280;69616;43.522;1.348;2024-01-15T01:36:47;99498.97;;;9.40;84.35
80308;BME280;69616;43.522;1.348;2024-01-15T01:39:12;99499.84;;;9.41;84.31
80308;BME280;69616;43.522;1.348;2024-01-15T01:41:38;99500.72;;;9.40;84.26
80308;BME280;69616;43.522;1.348;2024-01-15T01:44:04;99498.13;;;9.38;84.51
80308;BME280;69616;43.522;1.348;2024-01-15T01:46:30;99498.13;;;9.37;84.81
80308;BME280;69616;43.522;1.348;2024-01-15T01:48:56;99491.13;;;9.36;84.46
80308;BME280;69616;43.522;1.348;2024-01-15T01:51:22;99490.25;;;9.38;84.49
80308;BME280;69616;43.522;1.348;2024-01-15T01:53:48;99495.53;;;9.35;84.32
80308;BME280;69616;43.522;1.348;2024-01-15T01:56:15;99499.91;;;9.34;84.30
80308;BME280;69616;43.522;1.348;2024-01-15T01:58:41;99496.47;;;9.31;84.56
80308;BME280;69616;43.522;1.348;2024-01-15T02:01:06;99499.09;;;9.31;84.20
80308;BME280;69616;43.522;1.348;2024-01-15T02:03:32;99499.97;;;9.30;84.43
80308;BME280;69616;43.522;1.348;2024-01-15T02:05:59;99503.47;;;9.30;84.20
80308;BME280;69616;43.522;1.348;2024-01-15T02:08:25;99501.72;;;9.29;84.33
80308;BME280;69616;43.522;1.348;2024-01-15T02:10:51;99509.59;;;9.28;84.38
80308;BME280;69616;43.522;1.348;2024-01-15T02:13:17;99510.53;;;9.25;84.71
80308;BME280;69616;43.522;1.348;2024-01-15T02:15:43;99504.38;;;9.25;84.33
80308;BME280;69616;43.522;1.348;2024-01-15T02:18:09;99507.91;;;9.24;84.52
80308;BME280;69616;43.522;1.348;2024-01-15T02:20:34;99510.53;;;9.25;84.31
80308;BME280;69616;43.522;1.348;2024-01-15T02:23:08;99507.91;;;9.24;84.14
80308;BME280;69616;43.522;1.348;2024-01-15T02:25:45;99507.00;;;9.25;84.31
80308;BME280;69616;43.522;1.348;2024-01-15T02:28:12;99497.41;;;9.24;84.25
80308;BME280;69616;43.522;1.348;2024-01-15T02:30:39;99498.28;;;9.24;84.23
80308;BME280;69616;43.522;1.348;2024-01-15T02:33:05;99495.66;;;9.23;84.23
80308;BME280;69616;43.522;1.348;2024-01-15T02:35:30;99487.81;;;9.21;84.46
80308;BME280;69616;43.522;1.348;2024-01-15T02:37:56;99487.81;;;9.21;84.58
80308;BME280;69616;43.522;1.348;2024-01-15T02:40:21;99486.91;;;9.21;84.28
80308;BME280;69616;43.522;1.348;2024-01-15T02:42:47;99486.06;;;9.20;84.31
80308;BME280;69616;43.522;1.348;2024-01-15T02:45:12;99481.72;;;9.19;84.29
80308;BME280;69616;43.522;1.348;2024-01-15T02:47:37;99481.72;;;9.19;84.08
80308;BME280;69616;43.522;1.348;2024-01-15T02:50:03;99485.22;;;9.16;84.25
80308;BME280;69616;43.522;1.348;2024-01-15T02:52:29;99481.78;;;9.11;84.13
80308;BME280;69616;43.522;1.348;2024-01-15T02:54:54;99472.16;;;9.10;84.32
80308;BME280;69616;43.522;1.348;2024-01-15T02:57:22;99478.31;;;9.09;84.12
80308;BME280;69616;43.522;1.348;2024-01-15T02:59:50;99485.28;;;9.10;84.22
80308;BME280;69616;43.522;1.348;2024-01-15T03:02:15;99476.56;;;9.08;84.31
80308;BME280;69616;43.522;1.348;2024-01-15T03:04:44;99480.09;;;9.04;84.26
80308;BME280;69616;43.522;1.348;2024-01-15T03:07:10;99473.09;;;9.06;84.46
80308;BME280;69616;43.522;1.348;2024-01-15T03:09:35;99465.22;;;9.04;84.39
80308;BME280;69616;43.522;1.348;2024-01-15T03:12:00;99464.38;;;9.01;84.25
80308;BME280;69616;43.522;1.348;2024-01-15T03:14:26;99475.75;;;9.00;84.55
80308;BME280;69616;43.522;1.348;2024-01-15T03:16:52;99469.63;;;9.02;84.58
80308;BME280;69616;43.522;1.348;2024-01-15T03:19:18;99462.59;;;9.04;84.38
80308;BME280;69616;43.522;1.348;2024-01-15T03:21:43;99469.56;;;9.04;84.21
80308;BME280;69616;43.522;1.348;2024-01-15T03:24:09;99473.97;;;9.05;83.99
80308;BME280;69616;43.522;1.348;2024-01-15T03:26:34;99479.22;;;9.02;84.24
80308;BME280;69616;43.522;1.348;2024-01-15T03:28:59;99459.16;;;8.99;84.44
80308;BME280;69616;43.522;1.348;2024-01-15T03:31:25;99457.34;;;9.03;84.67
80308;BME280;69616;43.522;1.348;2024-01-15T03:33:50;99459.13;;;9.01;84.25
80308;BME280;69616;43.522;1.348;2024-01-15T03:36:16;99452.13;;;9.00;84.57
80308;BME280;69616;43.522;1.348;2024-01-15T03:38:41;99448.66;;;8.98;84.41
80308;BME280;69616;43.522;1.348;2024-01-15T03:41:07;99452.97;;;9.02;84.83
80308;BME280;69616;43.522;1.348;2024-01-15T03:43:33;99438.06;;;9.04;84.76
80308;BME280;69616;43.522;1.348;2024-01-15T03:45:58;99434.59;;;9.05;84.65
80308;BME280;69616;43.522;1.348;2024-01-15T03:48:23;99424.06;;;9.05;84.30
80308;BME280;69616;43.522;1.348;2024-01-15T03:50:49;99415.31;;;9.06;84.87
80308;BME280;69616;43.522;1.348;2024-01-15T03:53:14;99417.03;;;9.07;84.50
80308;BME280;69616;43.522;1.348;2024-01-15T03:55:40;99414.38;;;9.09;84.45
80308;BME280;69616;43.522;1.348;2024-01-15T03:58:05;99410.88;;;9.11;nan
80308;BME280;69616;43.522;1.348;2024-01-15T04:00:30;99399.47;;;9.11;84.19
80308;BME280;69616;43.522;1.348;2024-01-15T04:02:56;99402.09;;;9.11;84.64
80308;BME280;69616;43.522;1.348;2024-01-15T04:05:21;99399.47;;;9.12;84.06
80308;BME280;69616;43.522;1.348;2024-01-15T04:07:47;99404.72;;;9.12;84.23
80308;BME280;69616;43.522;1.348;2024-01-15T04:10:12;99406.47;;;9.12;84.38
80308;BME280;69616;43.522;1.348;2024-01-15T04:12:37;99397.75;;;9.11;84.55
80308;BME280;69616;43.522;1.348;2024-01-15T04:15:03;99394.22;;;9.12;84.46
80308;BME280;69616;43.522;1.348;2024-01-15T04:17:29;99386.34;;;9.12;84.15
80308;BME280;69616;43.522;1.348;2024-01-15T04:19:54;99385.44;;;9.13;84.39
80308;BME280;69616;43.522;1.348;2024-01-15T04:22:20;99383.72;;;9.12;84.10
80308;BME280;69616;43.522;1.348;2024-01-15T04:24:45;99388.91;;;9.15;84.22
80308;BME280;69616;43.522;1.348;2024-01-15T04:27:11;99381.91;;;9.16;84.47
80308;BME280;69616;43.522;1.348;2024-01-15T04:29:39;99381.06;;;9.14;84.43
80308;BME280;69616;43.522;1.348;2024-01-15T04:32:05;99383.72;;;9.12;84.29
80308;BME280;69616;43.522;1.348;2024-01-15T04:34:31;99383.72;;;9.12;84.41
80308;BME280;69616;43.522;1.348;2024-01-15T04:36:56;99376.69;;;9.13;84.49
80308;BME280;69616;43.522;1.348;2024-01-15T04:39:22;99375.78;;;9.15;84.08
80308;BME280;69616;43.522;1.348;2024-01-15T04:41:48;99367.91;;;9.15;84.35
80308;BME280;69616;43.522;1.348;2024-01-15T04:44:13;99375.78;;;9.17;84.31
80308;BME280;69616;43.522;1.348;2024-01-15T04:46:38;99371.38;;;9.17;83.95
80308;BME280;69616;43.522;1.348;2024-01-15T04:49:04;99366.13;;;9.19;84.10
80308;BME280;69616;43.522;1.348;2024-01-15T04:51:29;99358.25;;;9.17;84.15
80308;BME280;69616;43.522;1.348;2024-01-15T04:53:54;99359.13;;;9.16;84.23
80308;BME280;69616;43.522;1.348;2024-01-15T04:56:20;99348.69;;;9.13;84.34
80308;BME280;69616;43.522;1.348;2024-01-15T04:58:45;99353.94;;;9.13;84.44
80308;BME280;69616;43.522;1.348;2024-01-15T05:01:11;99348.63;;;9.16;84.32
80308;BME280;69616;43.522;1.348;2024-01-15T05:03:37;99348.63;;;9.16;84.51
80308;BME280;69616;43.522;1.348;2024-01-15T05:06:02;99344.25;;;9.17;84.44
80308;BME280;69616;43.522;1.348;2024-01-15T05:08:28;99349.47;;;9.18;84.23
80308;BME280;69616;43.522;1.348;2024-01-15T05:10:53;99334.56;;;9.21;84.30
80308;BME280;69616;43.522;1.348;2024-01-15T05:13:19;99327.56;;;9.19;84.51
80308;BME280;69616;43.522;1.348;2024-01-15T05:15:44;99332.81;;;9.21;84.17
80308;BME280;69616;43.522;1.348;2024-01-15T05:18:09;99324.06;;;9.21;84.29
80308;BME280;69616;43.522;1.348;2024-01-15T05:20:35;99324.06;;;9.21;84.13
80308;BME280;69616;43.522;1.348;2024-01-15T05:23:00;99323.19;;;9.20;84.38
80308;BME280;69616;43.522;1.348;2024-01-15T05:25:25;99318.81;;;9.21;84.25
80308;BME280;69616;43.522;1.348;2024-01-15T05:27:51;99311.81;;;9.19;84.25
80308;BME280;69616;43.522;1.348;2024-01-15T05:30:16;99314.47;;;9.18;84.26
80308;BME280;69616;43.522;1.348;2024-01-15T05:32:42;99314.47;;;9.18;84.65
80308;BME280;69616;43.522;1.348;2024-01-15T05:35:07;99298.72;;;9.16;84.34
80308;BME280;69616;43.522;1.348;2024-01-15T05:37:33;99296.09;;;9.16;84.26
80308;BME280;69616;43.522;1.348;2024-01-15T05:39:58;99310.13;;;9.15;84.46
80308;BME280;69616;43.522;1.348;2024-01-15T05:42:23;99310.13;;;9.15;84.64
80308;BME280;69616;43.522;1.348;2024-01-15T05:44:49;99307.50;;;9.15;84.30
80308;BME280;69616;43.522;1.348;2024-01-15T05:47:14;99306.66;;;9.13;84.30
80308;BME280;69616;43.522;1.348;2024-01-15T05:49:40;99308.38;;;9.14;84.30
80308;BME280;69616;43.522;1.348;2024-01-15T05:52:05;99299.63;;;9.15;84.32
80308;BME280;69616;43.522;1.348;2024-01-15T05:54:31;99301.34;;;9.16;84.14
80308;BME280;69616;43.522;1.348;2024-01-15T05:56:56;99310.97;;;9.16;84.33
80308;BME280;69616;43.522;1.348;2024-01-15T05:59:22;99314.50;;;9.15;84.31
80308;BME280;69616;43.522;1.348;2024-01-15T06:01:47;99308.41;;;9.13;84.08
80308;BME280;69616;43.522;1.348;2024-01-15T06:04:13;99309.28;;;9.12;84.37
80308;BME280;69616;43.522;1.348;2024-01-15T06:06:38;99308.44;;;9.11;84.17
80308;BME280;69616;43.522;1.348;2024-01-15T06:09:03;99306.66;;;9.13;84.59
80308;BME280;69616;43.522;1.348;2024-01-15T06:11:34;99306.66;;;9.13;84.53
80308;BME280;69616;43.522;1.348;2024-01-15T06:14:00;99304.03;;;9.12;84.25
80308;BME280;69616;43.522;1.348;2024-01-15T06:16:26;99310.16;;;9.12;84.47
80308;BME280;69616;43.522;1.348;2024-01-15T06:18:51;99304.91;;;9.12;84.47
80308;BME280;69616;43.522;1.348;2024-01-15T06:21:17;99306.66;;;9.12;84.26
80308;BME280;69616;43.522;1.348;2024-01-15T06:23:42;99302.28;;;9.12;84.61
80308;BME280;69616;43.522;1.348;2024-01-15T06:26:11;99306.66;;;9.13;84.58
80308;BME280;69616;43.522;1.348;2024-01-15T06:28:40;99295.25;;;9.13;84.19
80308;BME280;69616;43.522;1.348;2024-01-15T06:31:08;99309.25;;;9.15;84.13
80308;BME280;69616;43.522;1.348;2024-01-15T06:33:34;99304.88;;;9.15;84.35
80308;BME280;69616;43.522;1.348;2024-01-15T06:35:59;99299.63;;;9.15;84.52
80308;BME280;69616;43.522;1.348;2024-01-15T06:38:25;99300.50;;;9.14;84.26
80308;BME280;69616;43.522;1.348;2024-01-15T06:40:51;99299.63;;;9.17;84.43
80308;BME280;69616;43.522;1.348;2024-01-15T06:43:17;99295.22;;;9.16;84.15
80308;BME280;69616;43.522;1.348;2024-01-15T06:45:45;99287.31;;;9.17;84.52
80308;BME280;69616;43.522;1.348;2024-01-15T06:48:11;99280.34;;;9.18;84.33
80308;BME280;69616;43.522;1.348;2024-01-15T06:50:40;99279.44;;;9.19;84.38
80308;BME280;69616;43.522;1.348;2024-01-15T06:53:05;99277.72;;;9.18;84.46
80308;BME280;69616;43.522;1.348;2024-01-15T06:55:30;99285.53;;;9.19;84.30
80308;BME280;69616;43.522;1.348;2024-01-15T06:57:56;99276.81;;;9.19;84.50
80308;BME280;69616;43.522;1.348;2024-01-15T07:00:21;99276.78;;;9.21;84.62
80308;BME280;69616;43.522;1.348;2024-01-15T07:02:47;99270.66;;;9.20;84.18
80308;BME280;69616;43.522;1.348;2024-01-15T07:05:12;99264.47;;;9.23;84.33
80308;BME280;69616;43.522;1.348;2024-01-15T07:07:37;99266.25;;;9.22;84.53
80308;BME280;69616;43.522;1.348;2024-01-15T07:10:03;99274.94;;;9.26;84.46
80308;BME280;69616;43.522;1.348;2024-01-15T07:12:29;99269.69;;;9.26;84.36
80308;BME280;69616;43.522;1.348;2024-01-15T07:14:56;99266.16;;;9.27;84.64
80308;BME280;69616;43.522;1.348;2024-01-15T07:17:21;99266.16;;;9.27;84.67
80308;BME280;69616;43.522;1.348;2024-01-15T07:19:47;99265.31;;;9.25;84.76
80308;BME280;69616;43.522;1.348;2024-01-15T07:22:12;99269.69;;;9.26;84.69
80308;BME280;69616;43.522;1.348;2024-01-15T07:24:38;99269.69;;;9.26;84.63
80308;BME280;69616;43.522;1.348;2024-01-15T07:27:04;99262.69;;;9.26;84.80
80308;BME280;69616;43.522;1.348;2024-01-15T07:29:30;99255.66;;;9.27;84.70
80308;BME280;69616;43.522;1.348;2024-01-15T07:31:55;99253.03;;;9.27;84.83
80308;BME280;69616;43.522;1.348;2024-01-15T07:34:21;99251.28;;;9.26;84.49
80308;BME280;69616;43.522;1.348;2024-01-15T07:36:47;99260.91;;;9.27;85.05
80308;BME280;69616;43.522;1.348;2024-01-15T07:39:12;99263.53;;;9.27;85.04
80308;BME280;69616;43.522;1.348;2024-01-15T07:41:39;99273.19;;;9.26;84.73
80308;BME280;69616;43.522;1.348;2024-01-15T07:44:05;99275.78;;;9.28;84.69
80308;BME280;69616;43.522;1.348;2024-01-15T07:46:30;99269.69;;;9.26;84.83
80308;BME280;69616;43.522;1.348;2024-01-15T07:48:56;99263.59;;;9.25;84.97
80308;BME280;69616;43.522;1.348;2024-01-15T07:51:23;99272.31;;;9.27;84.92
80308;BME280;69616;43.522;1.348;2024-01-15T07:53:48;99271.41;;;9.30;85.18
80308;BME280;69616;43.522;1.348;2024-01-15T07:56:14;99274.00;;;9.31;84.96
80308;BME280;69616;43.522;1.348;2024-01-15T07:58:39;99283.66;;;9.31;84.76
80308;BME280;69616;43.522;1.348;2024-01-15T08:01:04;99274.88;;;9.32;85.00
80308;BME280;69616;43.522;1.348;2024-01-15T08:03:31;99275.72;;;9.32;85.06
80308;BME280;69616;43.522;1.348;2024-01-15T08:05:56;99279.19;;;9.34;84.88
80308;BME280;69616;43.522;1.348;2024-01-15T08:08:24;99283.59;;;9.34;84.86
80308;BME280;69616;43.522;1.348;2024-01-15T08:10:51;99286.22;;;9.32;85.10
80308;BME280;69616;43.522;1.348;2024-01-15T08:13:17;99284.50;;;9.33;85.08
80308;BME280;69616;43.522;1.348;2024-01-15T08:15:42;99293.22;;;9.35;85.41
80308;BME280;69616;43.522;1.348;2024-01-15T08:18:08;99294.94;;;9.36;85.16
80308;BME280;69616;43.522;1.348;2024-01-15T08:20:34;99294.91;;;9.38;85.05
80308;BME280;69616;43.522;1.348;2024-01-15T08:22:59;99296.66;;;9.39;84.86
80308;BME280;69616;43.522;1.348;2024-01-15T08:25:25;99293.13;;;9.41;84.85
80308;BME280;69616;43.522;1.348;2024-01-15T08:27:51;99303.56;;;9.44;84.88
80308;BME280;69616;43.522;1.348;2024-01-15T08:30:17;99293.97;;;9.43;85.45
80308;BME280;69616;43.522;1.348;2024-01-15T08:32:46;99299.22;;;9.43;85.45
80308;BME280;69616;43.522;1.348;2024-01-15T08:35:12;99293.94;;;9.45;85.41
80308;BME280;69616;43.522;1.348;2024-01-15T08:37:38;99300.03;;;9.47;85.47
80308;BME280;69616;43.522;1.348;2024-01-15T08:40:04;99302.63;;;9.48;85.50
80308;BME280;69616;43.522;1.348;2024-01-15T08:42:30;99309.63;;;9.51;85.36
80308;BME280;69616;43.522;1.348;2024-01-15T08:44:55;99304.34;;;9.53;85.52
80308;BME280;69616;43.522;1.348;2024-01-15T08:47:20;99311.28;;;9.57;85.30
80308;BME280;69616;43.522;1.348;2024-01-15T08:49:46;99303.31;;;9.61;85.55
80308;BME280;69616;43.522;1.348;2024-01-15T08:52:11;99302.41;;;9.64;85.04
80308;BME280;69616;43.522;1.348;2024-01-15T08:54:37;99298.84;;;9.68;84.95
80308;BME280;69616;43.522;1.348;2024-01-15T08:57:03;99285.69;;;9.70;85.19
80308;BME280;69616;43.522;1.348;2024-01-15T08:59:28;99274.22;;;9.72;85.13
80308;BME280;69616;43.522;1.348;2024-01-15T09:01:54;99284.69;;;9.75;85.07
80308;BME280;69616;43.522;1.348;2024-01-15T09:04:22;99289.03;;;9.78;85.24
80308;BME280;69616;43.522;1.348;2024-01-15T09:06:48;99290.72;;;9.84;84.94
80308;BME280;69616;43.522;1.348;2024-01-15T09:09:14;99302.00;;;9.89;85.04
80308;BME280;69616;43.522;1.348;2024-01-15T09:11:40;99303.69;;;9.93;85.01
80308;BME280;69616;43.522;1.348;2024-01-15T09:14:06;99294.84;;;9.97;84.92
80308;BME280;69616;43.522;1.348;2024-01-15T09:16:31;99297.41;;;10.00;85.31
80308;BME280;69616;43.522;1.348;2024-01-15T09:18:56;99306.19;;;10.01;85.02
80308;BME280;69616;43.522;1.348;2024-01-15T09:21:23;99298.28;;;10.02;85.18
80308;BME280;69616;43.522;1.348;2024-01-15T09:23:49;99302.53;;;10.08;84.72
80308;BME280;69616;43.522;1.348;2024-01-15T09:26:15;99299.84;;;10.11;84.92
80308;BME280;69616;43.522;1.348;2024-01-15T09:28:40;99305.09;;;10.13;84.93
80308;BME280;69616;43.522;1.348;2024-01-15T09:31:06;99306.00;;;10.13;85.02
80308;BME280;69616;43.522;1.348;2024-01-15T09:33:31;99307.66;;;10.17;85.33
80308;BME280;69616;43.522;1.348;2024-01-15T09:35:56;99305.88;;;10.19;85.11
80308;BME280;69616;43.522;1.348;2024-01-15T09:38:22;99299.72;;;10.20;85.14
80308;BME280;69616;43.522;1.348;2024-01-15T09:40:49;99304.84;;;10.27;85.08
80308;BME280;69616;43.522;1.348;2024-01-15T09:43:14;99294.22;;;10.33;84.71
80308;BME280;69616;43.522;1.348;2024-01-15T09:45:41;99302.88;;;10.40;84.73
80308;BME280;69616;43.522;1.348;2024-01-15T09:48:07;99310.66;;;10.47;84.78
80308;BME280;69616;43.522;1.348;2024-01-15T09:50:33;99302.69;;;10.52;84.99
80308;BME280;69616;43.522;1.348;2024-01-15T09:52:59;99309.53;;;10.59;84.83
80308;BME280;69616;43.522;1.348;2024-01-15T09:55:24;99306.91;;;10.61;84.59
80308;BME280;69616;43.522;1.348;2024-01-15T09:57:50;99315.66;;;10.60;84.86
80308;BME280;69616;43.522;1.348;2024-01-15T10:00:19;99317.38;;;10.62;84.52
80308;BME280;69616;43.522;1.348;2024-01-15T10:02:46;99314.75;;;10.62;84.52
80308;BME280;69616;43.522;1.348;2024-01-15T10:05:11;99313.91;;;10.62;84.62
80308;BME280;69616;43.522;1.348;2024-01-15T10:07:37;99306.84;;;10.62;nan
80308;BME280;69616;43.522;1.348;2024-01-15T10:10:03;99316.41;;;10.67;84.40
80308;BME280;69616;43.522;1.348;2024-01-15T10:12:28;99310.22;;;10.69;84.83
80308;BME280;69616;43.522;1.348;2024-01-15T10:14:56;99300.50;;;10.73;84.53
80308;BME280;69616;43.522;1.348;2024-01-15T10:17:21;99305.72;;;10.76;84.58
80308;BME280;69616;43.522;1.348;2024-01-15T10:19:47;99308.31;;;10.77;84.59
80308;BME280;69616;43.522;1.348;2024-01-15T10:22:14;99309.06;;;10.83;84.56
80308;BME280;69616;43.522;1.348;2024-01-15T10:24:40;99304.63;;;10.86;84.25
80308;BME280;69616;43.522;1.348;2024-01-15T10:27:07;99306.34;;;10.89;84.42
80308;BME280;69616;43.522;1.348;2024-01-15T10:29:33;99309.81;;;10.91;84.44
80308;BME280;69616;43.522;1.348;2024-01-15T10:31:59;99308.00;;;10.91;84.14
80308;BME280;69616;43.522;1.348;2024-01-15T10:34:25;99308.06;;;10.90;84.14
80308;BME280;69616;43.522;1.348;2024-01-15T10:36:50;99312.38;;;10.93;84.50
80308;BME280;69616;43.522;1.348;2024-01-15T10:39:21;99303.56;;;10.94;84.46
80308;BME280;69616;43.522;1.348;2024-01-15T10:41:47;99301.81;;;10.94;84.16
80308;BME280;69616;43.522;1.348;2024-01-15T10:44:12;99298.25;;;10.97;84.30
80308;BME280;69616;43.522;1.348;2024-01-15T10:46:38;99290.31;;;11.00;84.02
80308;BME280;69616;43.522;1.348;2024-01-15T10:49:04;99286.84;;;10.98;83.97
80308;BME280;69616;43.522;1.348;2024-01-15T10:51:29;99280.66;;;10.99;84.19
80308;BME280;69616;43.522;1.348;2024-01-15T10:53:56;99280.66;;;10.99;84.10
80308;BME280;69616;43.522;1.348;2024-01-15T10:56:22;99278.94;;;10.98;84.43
80308;BME280;69616;43.522;1.348;2024-01-15T10:58:50;99278.03;;;10.99;84.44
80308;BME280;69616;43.522;1.348;2024-01-15T11:01:16;99278.88;;;11.01;84.85
80308;BME280;69616;43.522;1.348;2024-01-15T11:03:43;99280.59;;;11.02;84.67
80308;BME280;69616;43.522;1.348;2024-01-15T11:06:18;99281.38;;;11.05;84.68
80308;BME280;69616;43.522;1.348;2024-01-15T11:08:50;99285.78;;;11.05;84.75
80308;BME280;69616;43.522;1.348;2024-01-15T11:11:20;99278.72;;;11.07;84.57
80308;BME280;69616;43.522;1.348;2024-01-15T11:13:46;99271.66;;;11.09;84.78
80308;BME280;69616;43.522;1.348;2024-01-15T11:16:15;99276.00;;;11.12;84.35
80308;BME280;69616;43.522;1.348;2024-01-15T11:19:01;99267.19;;;11.13;84.80
80308;BME280;69616;43.522;1.348;2024-01-15T11:21:27;99258.31;;;11.17;84.60
80308;BME280;69616;43.522;1.348;2024-01-15T11:23:59;99267.97;;;11.16;84.52
80308;BME280;69616;43.522;1.348;2024-01-15T11:26:36;99260.97;;;11.15;84.43
80308;BME280;69616;43.522;1.348;2024-01-15T11:37:16;99244.97;;;11.25;84.67
80308;BME280;69616;43.522;1.348;2024-01-15T11:39:42;99239.59;;;11.28;84.68
80308;BME280;69616;43.522;1.348;2024-01-15T11:42:10;99237.00;;;11.26;84.82
80308;BME280;69616;43.522;1.348;2024-01-15T11:44:37;99234.34;;;11.28;84.54
80308;BME280;69616;43.522;1.348;2024-01-15T11:47:07;99239.59;;;11.28;84.82
80308;BME280;69616;43.522;1.348;2024-01-15T11:49:58;99238.78;;;11.26;84.34
80308;BME280;69616;43.522;1.348;2024-01-15T11:52:26;99239.59;;;11.28;84.94
80308;BME280;69616;43.522;1.348;2024-01-15T11:55:19;99240.53;;;11.25;84.51
80308;BME280;69616;43.522;1.348;2024-01-15T11:57:52;99231.72;;;11.26;84.62
80308;BME280;69616;43.522;1.348;2024-01-15T12:00:20;99233.38;;;11.30;84.48
80308;BME280;69616;43.522;1.348;2024-01-15T12:02:47;99224.56;;;11.31;84.72
80308;BME280;69616;43.522;1.348;2024-01-15T12:05:16;99225.44;;;11.32;84.78
80308;BME280;69616;43.522;1.348;2024-01-15T12:07:42;99224.53;;;11.34;84.94
80308;BME280;69616;43.522;1.348;2024-01-15T12:10:12;99221.84;;;11.36;84.99
80308;BME280;69616;43.522;1.348;2024-01-15T12:13:00;99214.72;;;11.40;84.95
80308;BME280;69616;43.522;1.348;2024-01-15T12:15:28;99216.47;;;11.41;85.05
80308;BME280;69616;43.522;1.348;2024-01-15T12:17:55;99215.56;;;11.40;85.15
80308;BME280;69616;43.522;1.348;2024-01-15T12:20:23;99202.41;;;11.40;84.75
80308;BME280;69616;43.522;1.348;2024-01-15T12:22:49;99195.31;;;11.42;84.76
80308;BME280;69616;43.522;1.348;2024-01-15T12:25:14;99198.75;;;11.46;85.30
80308;BME280;69616;43.522;1.348;2024-01-15T12:27:40;99189.03;;;11.48;85.28
80308;BME280;69616;43.522;1.348;2024-01-15T12:30:06;99198.66;;;11.51;85.07
80308;BME280;69616;43.522;1.348;2024-01-15T12:32:32;99199.41;;;11.54;85.11
80308;BME280;69616;43.522;1.348;2024-01-15T12:34:58;99194.94;;;11.58;84.84
80308;BME280;69616;43.522;1.348;2024-01-15T12:37:24;99192.22;;;11.61;85.05
80308;BME280;69616;43.522;1.348;2024-01-15T12:39:51;99190.47;;;11.61;85.03
80308;BME280;69616;43.522;1.348;2024-01-15T12:42:17;99178.09;;;11.63;84.82
80308;BME280;69616;43.522;1.348;2024-01-15T12:44:44;99182.47;;;11.65;85.01
80308;BME280;69616;43.522;1.348;2024-01-15T12:47:10;99180.75;;;11.62;85.14
80308;BME280;69616;43.522;1.348;2024-01-15T12:49:36;99175.47;;;11.63;85.38
80308;BME280;69616;43.522;1.348;2024-01-15T12:52:02;99177.22;;;11.63;85.32
80308;BME280;69616;43.522;1.348;2024-01-15T12:54:28;99173.66;;;11.66;85.87
80308;BME280;69616;43.522;1.348;2024-01-15T12:56:53;99171.88;;;11.66;85.26
80308;BME280;69616;43.522;1.348;2024-01-15T12:59:19;99169.13;;;11.69;85.29
80308;BME280;69616;43.522;1.348;2024-01-15T13:01:45;99176.19;;;11.70;85.24
80308;BME280;69616;43.522;1.348;2024-01-15T13:04:11;99171.66;;;11.74;85.64
80308;BME280;69616;43.522;1.348;2024-01-15T13:06:37;99169.91;;;11.74;85.61
80308;BME280;69616;43.522;1.348;2024-01-15T13:09:05;99171.63;;;11.75;85.75
80308;BME280;69616;43.522;1.348;2024-01-15T13:11:32;99175.09;;;11.77;85.90